Time;durP1;ratioP1;P1;durP2;ratioP2;P2;SDS_P1;SDS_P2;PMS_P1;PMS_P2;Temp;Humidity;BMP_temperature;BMP_pressure;BME280_temperature;BME280_humidity;BME280_pressure;Samples;Min_cycle;Max_cycle;Signal;HPM_P1;HPM_P2
2023/03/10 00:02:21;;;;;;;2.95;1.50;;;23.50;59.10;;;;;;5030789;28;20034;-75
2023/03/10 00:04:50;;;;;;;1.52;1.27;;;23.50;59.20;;;;;;5032595;28;20485;-75
2023/03/10 00:07:17;;;;;;;1.88;1.60;;;23.40;59.00;;;;;;5034741;28;20082;-75
2023/03/10 00:09:43;;;;;;;2.05;1.60;;;23.40;58.90;;;;;;5034630;28;20049;-75
2023/03/10 00:12:09;;;;;;;2.63;1.50;;;23.50;59.00;;;;;;5034858;28;20037;-75
2023/03/10 00:14:35;;;;;;;1.98;1.75;;;23.60;59.00;;;;;;5034734;28;20172;-75
2023/03/10 00:17:01;;;;;;;4.20;1.75;;;23.50;59.00;;;;;;5034391;28;20114;-75
2023/03/10 00:19:27;;;;;;;2.67;1.67;;;23.70;59.00;;;;;;5034600;28;20092;-75
2023/03/10 00:21:53;;;;;;;3.22;1.73;;;23.60;58.90;;;;;;5034654;28;20041;-75
2023/03/10 00:24:19;;;;;;;2.42;1.33;;;23.60;58.90;;;;;;5034583;28;20079;-75
2023/03/10 00:26:45;;;;;;;2.20;2.00;;;23.60;58.90;;;;;;5034085;28;20122;-75
2023/03/10 00:29:11;;;;;;;2.05;1.75;;;23.60;58.90;;;;;;5034218;28;20040;-75
2023/03/10 00:31:37;;;;;;;1.55;1.45;;;23.50;59.00;;;;;;5033996;28;20044;-75
2023/03/10 00:34:04;;;;;;;1.70;1.30;;;23.70;59.00;;;;;;5032947;28;20397;-75
2023/03/10 00:36:31;;;;;;;2.78;1.73;;;23.60;58.90;;;;;;5034161;28;20037;-75
2023/03/10 00:39:04;;;;;;;1.50;1.40;;;23.50;58.90;;;;;;5032927;28;20049;-75
2023/03/10 00:41:34;;;;;;;1.65;1.55;;;23.60;58.80;;;;;;5033703;28;20040;-75
2023/03/10 00:44:01;;;;;;;1.75;1.65;;;23.60;58.80;;;;;;5034000;28;20037;-75
2023/03/10 00:46:28;;;;;;;1.92;1.70;;;23.50;58.90;;;;;;5033991;28;20061;-75
2023/03/10 00:48:55;;;;;;;1.92;1.65;;;23.50;59.00;;;;;;5032579;28;20128;-75
2023/03/10 00:51:22;;;;;;;2.75;2.08;;;23.40;58.90;;;;;;5032912;28;20159;-75
2023/03/10 00:53:49;;;;;;;2.15;1.67;;;23.30;59.00;;;;;;5033894;28;20045;-75
2023/03/10 00:56:19;;;;;;;3.80;2.28;;;23.40;59.10;;;;;;5033881;28;20037;-75
2023/03/10 00:58:46;;;;;;;1.95;1.40;;;23.30;59.20;;;;;;5032510;28;20025;-75
2023/03/10 01:01:34;;;;;;;5.10;1.92;;;23.30;59.10;;;;;;5031042;28;20390;-75
2023/03/10 01:04:05;;;;;;;3.80;2.22;;;23.30;59.20;;;;;;5014843;28;20030;-75
2023/03/10 01:06:32;;;;;;;1.98;1.60;;;23.30;59.30;;;;;;5014958;28;20045;-75
2023/03/10 01:08:58;;;;;;;2.90;2.03;;;23.10;59.40;;;;;;5030951;28;20069;-75
2023/03/10 01:11:27;;;;;;;2.00;1.80;;;23.00;59.30;;;;;;5014198;28;20532;-75
2023/03/10 01:13:59;;;;;;;2.03;1.75;;;23.10;59.50;;;;;;5030784;28;20148;-75
2023/03/10 01:16:26;;;;;;;3.95;2.20;;;23.10;59.50;;;;;;5013278;28;20045;-75
2023/03/10 01:18:54;;;;;;;2.97;1.88;;;23.20;59.50;;;;;;5014279;28;20136;-75
2023/03/10 01:21:32;;;;;;;2.97;2.20;;;23.00;59.50;;;;;;5030933;28;20045;-75
2023/03/10 01:23:59;;;;;;;2.95;2.03;;;23.10;59.60;;;;;;5014221;28;20885;-75
2023/03/10 01:26:25;;;;;;;5.07;1.92;;;23.00;59.40;;;;;;5030820;28;20040;-75
2023/03/10 01:28:51;;;;;;;4.05;2.00;;;23.10;59.50;;;;;;5030608;28;20038;-75
2023/03/10 01:31:18;;;;;;;5.18;2.00;;;23.20;59.40;;;;;;5031056;28;20041;-75
2023/03/10 01:33:45;;;;;;;3.80;2.25;;;23.00;59.40;;;;;;5033452;28;20065;-75
2023/03/10 01:36:14;;;;;;;3.30;2.00;;;23.10;59.50;;;;;;5031751;28;20537;-75
2023/03/10 01:38:42;;;;;;;2.90;2.17;;;23.00;59.40;;;;;;5033101;28;20501;-75
2023/03/10 01:41:09;;;;;;;3.25;1.90;;;23.10;59.50;;;;;;5033084;28;20041;-75
2023/03/10 01:43:43;;;;;;;3.83;1.90;;;23.00;59.40;;;;;;5032991;28;20040;-75
2023/03/10 01:46:38;;;;;;;2.65;2.20;;;23.10;59.50;;;;;;5031523;28;20037;-75
2023/03/10 01:49:35;;;;;;;3.75;2.33;;;23.10;59.60;;;;;;5031439;28;20199;-75
2023/03/10 01:52:20;;;;;;;3.65;2.15;;;23.00;59.50;;;;;;5032775;28;20512;-75
2023/03/10 01:54:52;;;;;;;2.25;2.05;;;23.10;59.50;;;;;;5031416;28;20033;-75
2023/03/10 01:57:24;;;;;;;2.60;2.40;;;23.00;59.40;;;;;;5031465;28;20136;-75
2023/03/10 01:59:52;;;;;;;2.70;2.40;;;22.90;59.40;;;;;;5031532;28;20048;-75
2023/03/10 02:02:18;;;;;;;3.28;2.13;;;23.00;59.40;;;;;;5031635;28;20029;-75
2023/03/10 02:04:50;;;;;;;2.47;2.10;;;22.90;59.50;;;;;;5032256;28;20029;-75
2023/03/10 02:07:24;;;;;;;2.72;1.83;;;22.90;59.50;;;;;;5032664;28;20112;-75
2023/03/10 02:09:51;;;;;;;3.65;2.13;;;22.80;59.50;;;;;;5030872;28;20053;-75
2023/03/10 02:12:19;;;;;;;2.15;1.92;;;22.80;59.50;;;;;;5031291;28;20153;-75
2023/03/10 02:14:46;;;;;;;3.30;1.85;;;22.80;59.60;;;;;;5029431;28;20128;-75
2023/03/10 02:17:16;;;;;;;2.55;2.35;;;22.80;59.60;;;;;;5029818;28;20057;-75
2023/03/10 02:20:09;;;;;;;3.58;2.03;;;22.80;59.50;;;;;;5029714;28;20041;-75
2023/03/10 02:22:38;;;;;;;3.72;2.10;;;22.70;59.80;;;;;;5013444;28;20460;-75
2023/03/10 02:25:41;;;;;;;2.22;2.03;;;22.60;59.70;;;;;;5029680;28;20656;-75
2023/03/10 02:28:07;;;;;;;2.78;2.17;;;22.70;59.80;;;;;;4989938;28;20534;-75
2023/03/10 02:30:37;;;;;;;4.70;2.65;;;22.60;59.70;;;;;;4957512;28;20039;-75
2023/03/10 02:33:06;;;;;;;5.10;2.75;;;22.60;59.60;;;;;;4989265;28;20076;-75
2023/03/10 02:35:32;;;;;;;2.80;2.35;;;22.60;59.60;;;;;;4961447;28;20043;-75
2023/03/10 02:38:04;;;;;;;3.22;2.28;;;22.70;59.60;;;;;;4954531;28;20042;-75
2023/03/10 02:40:39;;;;;;;2.90;2.63;;;22.70;59.60;;;;;;4970647;28;20098;-75
2023/03/10 02:43:11;;;;;;;3.58;2.00;;;22.60;59.40;;;;;;4954449;28;20039;-75
2023/03/10 02:45:40;;;;;;;3.88;2.33;;;22.50;59.50;;;;;;4962711;28;20042;-75
2023/03/10 02:48:08;;;;;;;3.92;2.20;;;22.60;59.60;;;;;;4989789;28;20129;-75
2023/03/10 02:50:39;;;;;;;3.30;2.35;;;22.60;59.70;;;;;;4973400;28;20050;-75
2023/03/10 02:53:15;;;;;;;5.00;2.70;;;22.40;59.70;;;;;;4973555;28;20116;-75
2023/03/10 02:55:41;;;;;;;5.15;2.42;;;22.50;59.90;;;;;;4989555;28;20054;-75
2023/03/10 02:58:08;;;;;;;6.63;2.30;;;22.40;59.80;;;;;;4973501;28;20137;-75
2023/03/10 03:00:41;;;;;;;5.70;2.50;;;22.30;59.90;;;;;;4973469;28;20116;-75
2023/03/10 03:03:09;;;;;;;3.10;2.33;;;22.40;60.00;;;;;;4989703;28;20042;-75
2023/03/10 03:05:36;;;;;;;2.35;2.00;;;22.40;60.00;;;;;;4990466;28;20038;-75
2023/03/10 03:08:03;;;;;;;2.38;2.13;;;22.30;60.00;;;;;;5012700;28;20055;-75
2023/03/10 03:10:30;;;;;;;3.83;2.40;;;22.30;60.10;;;;;;5031427;28;20443;-75
2023/03/10 03:12:56;;;;;;;2.10;2.00;;;22.30;60.20;;;;;;5030345;28;20038;-75
2023/03/10 03:15:24;;;;;;;3.35;2.35;;;22.10;59.90;;;;;;5030114;28;20068;-75
2023/03/10 03:17:50;;;;;;;5.00;2.13;;;22.30;60.00;;;;;;5030188;28;20033;-75
2023/03/10 03:20:16;;;;;;;3.80;2.60;;;22.20;60.00;;;;;;5031223;28;20060;-75
2023/03/10 03:22:46;;;;;;;2.85;2.47;;;22.30;60.10;;;;;;5048248;28;20091;-75
2023/03/10 03:25:16;;;;;;;2.95;2.53;;;22.20;60.00;;;;;;5031804;28;20067;-75
2023/03/10 03:27:43;;;;;;;3.30;2.35;;;22.20;59.90;;;;;;5048462;28;20120;-75
2023/03/10 03:30:21;;;;;;;3.20;2.28;;;22.10;59.90;;;;;;5031822;28;20055;-75
2023/03/10 03:32:48;;;;;;;3.88;2.40;;;22.20;59.90;;;;;;5031775;28;20480;-75
2023/03/10 03:35:18;;;;;;;2.72;2.10;;;22.00;59.90;;;;;;5031620;28;20061;-75
2023/03/10 03:37:44;;;;;;;6.80;2.72;;;22.20;60.10;;;;;;5032057;28;20049;-75
2023/03/10 03:40:12;;;;;;;5.13;2.80;;;22.20;60.00;;;;;;5054087;28;20128;-75
2023/03/10 03:42:45;;;;;;;2.70;2.35;;;22.10;60.00;;;;;;5035013;28;20056;-75
2023/03/10 03:45:13;;;;;;;3.13;2.80;;;22.10;59.90;;;;;;5035141;28;20075;-75
2023/03/10 03:47:40;;;;;;;7.85;3.08;;;22.10;59.90;;;;;;5034926;28;20046;-75
2023/03/10 03:50:08;;;;;;;6.03;2.50;;;22.10;59.80;;;;;;5035236;28;20068;-75
2023/03/10 03:52:35;;;;;;;6.38;3.08;;;22.10;59.80;;;;;;5034703;28;20057;-75
2023/03/10 03:55:01;;;;;;;4.88;2.75;;;22.20;59.70;;;;;;4998943;28;20116;-75
2023/03/10 03:57:27;;;;;;;5.13;2.58;;;22.30;59.80;;;;;;5034481;28;20047;-75
2023/03/10 03:59:54;;;;;;;3.55;2.67;;;22.30;59.80;;;;;;5054905;28;20045;-75
2023/03/10 04:02:20;;;;;;;5.03;2.38;;;22.20;59.60;;;;;;5037959;28;20187;-75
2023/03/10 04:04:46;;;;;;;9.00;2.58;;;22.30;59.70;;;;;;5038273;28;20059;-75
2023/03/10 04:07:15;;;;;;;5.13;2.70;;;22.20;59.50;;;;;;5037981;28;20053;-76
2023/03/10 04:09:42;;;;;;;2.83;2.45;;;22.30;59.60;;;;;;5038101;28;20087;-75
2023/03/10 04:12:09;;;;;;;3.65;2.53;;;22.40;59.50;;;;;;5054865;28;20059;-75
2023/03/10 04:14:36;;;;;;;3.35;2.60;;;22.40;59.30;;;;;;5040608;28;20045;-75
2023/03/10 04:17:03;;;;;;;2.45;2.22;;;22.30;59.20;;;;;;5054807;28;20082;-75
2023/03/10 04:19:29;;;;;;;3.28;2.92;;;22.50;59.20;;;;;;5038010;28;20198;-75
2023/03/10 04:22:02;;;;;;;3.17;2.38;;;22.40;59.10;;;;;;5038142;28;20443;-75
2023/03/10 04:24:30;;;;;;;3.13;2.63;;;22.40;59.00;;;;;;5038270;28;20112;-75
2023/03/10 04:26:57;;;;;;;3.15;2.85;;;22.40;59.00;;;;;;5038115;28;20035;-75
2023/03/10 04:29:23;;;;;;;4.45;2.72;;;22.40;58.90;;;;;;5035278;28;20046;-75
2023/03/10 04:31:51;;;;;;;3.38;2.63;;;22.40;58.90;;;;;;5051299;28;20111;-75
2023/03/10 04:34:18;;;;;;;7.95;3.92;;;22.50;59.00;;;;;;5035517;28;20032;-75
2023/03/10 04:36:44;;;;;;;4.95;3.47;;;22.40;59.10;;;;;;5035843;28;20037;-75
2023/03/10 04:39:10;;;;;;;4.03;3.03;;;22.50;58.80;;;;;;5035926;28;20454;-75
2023/03/10 04:41:36;;;;;;;4.18;2.88;;;22.70;58.80;;;;;;5035939;28;20065;-76
2023/03/10 04:44:03;;;;;;;2.60;2.08;;;22.80;58.30;;;;;;5035789;28;20492;-76
2023/03/10 04:46:31;;;;;;;1.65;1.30;;;22.90;57.90;;;;;;5035707;28;20128;-75
2023/03/10 04:48:57;;;;;;;3.70;2.72;;;23.10;57.50;;;;;;5035974;28;20026;-76
2023/03/10 04:51:23;;;;;;;6.65;3.65;;;23.20;57.30;;;;;;5033411;28;20132;-76
2023/03/10 04:53:51;;;;;;;4.03;2.80;;;23.30;57.20;;;;;;5035586;28;20028;-76
2023/03/10 04:56:18;;;;;;;6.75;3.03;;;23.30;57.00;;;;;;5032448;28;20033;-76
2023/03/10 04:58:44;;;;;;;4.35;3.20;;;23.30;56.90;;;;;;5032414;28;20092;-74
2023/03/10 05:01:12;;;;;;;9.00;2.58;;;23.40;58.40;;;;;;5032664;28;20057;-77
2023/03/10 05:03:43;;;;;;;6.45;2.50;;;23.60;59.40;;;;;;5032639;28;20033;-78
2023/03/10 05:06:14;;;;;;;7.55;3.15;;;24.10;62.00;;;;;;5032327;28;20446;-78
2023/03/10 05:08:42;;;;;;;6.88;2.60;;;24.30;58.80;;;;;;5032429;28;20067;-78
2023/03/10 05:11:09;;;;;;;3.83;2.60;;;24.30;55.40;;;;;;5032209;28;20057;-77
2023/03/10 05:13:35;;;;;;;5.43;3.40;;;24.20;54.00;;;;;;5034019;28;20036;-77
2023/03/10 05:16:02;;;;;;;5.45;3.03;;;24.20;52.40;;;;;;5032260;28;20113;-74
2023/03/10 05:18:28;;;;;;;4.07;3.20;;;24.00;51.00;;;;;;5032324;28;20040;-76
2023/03/10 05:20:57;;;;;;;5.47;3.42;;;23.80;50.80;;;;;;5032253;28;20091;-76
2023/03/10 05:23:24;;;;;;;6.70;3.58;;;23.70;51.50;;;;;;5032021;28;20034;-75
2023/03/10 05:25:50;;;;;;;3.90;3.22;;;23.60;51.70;;;;;;5050345;28;20045;-76
2023/03/10 05:28:18;;;;;;;6.15;3.63;;;23.70;52.20;;;;;;5033949;28;20045;-75
2023/03/10 05:30:44;;;;;;;7.88;4.72;;;23.60;52.60;;;;;;5033849;28;20082;-74
2023/03/10 05:33:10;;;;;;;9.70;4.35;;;23.60;53.30;;;;;;5017246;28;20062;-74
2023/03/10 05:35:39;;;;;;;9.30;6.10;;;23.60;53.90;;;;;;5033995;28;20302;-75
2023/03/10 05:38:05;;;;;;;11.60;6.68;;;23.40;54.40;;;;;;5033784;28;20836;-76
2023/03/10 05:40:31;;;;;;;26.20;6.18;;;23.40;54.90;;;;;;5050560;28;20129;-73
2023/03/10 05:42:57;;;;;;;10.68;4.15;;;23.40;55.20;;;;;;5033747;28;20041;-73
2023/03/10 05:45:24;;;;;;;9.95;4.90;;;23.30;55.70;;;;;;5033793;28;20084;-73
2023/03/10 05:47:50;;;;;;;9.63;4.72;;;23.40;55.40;;;;;;5033688;28;20029;-74
2023/03/10 05:50:18;;;;;;;17.80;8.85;;;23.50;55.50;;;;;;5033558;28;20223;-74
2023/03/10 05:52:44;;;;;;;19.10;7.55;;;23.70;52.80;;;;;;5030077;28;20046;-75
2023/03/10 05:55:14;;;;;;;10.98;6.68;;;23.40;50.30;;;;;;5030301;28;20045;-75
2023/03/10 05:57:41;;;;;;;13.68;6.65;;;23.50;49.40;;;;;;5016696;28;20050;-75
2023/03/10 06:00:10;;;;;;;12.35;6.65;;;23.50;48.90;;;;;;5013614;28;20029;-74
2023/03/10 06:02:41;;;;;;;7.32;5.22;;;23.70;48.10;;;;;;5013980;28;20064;-76
2023/03/10 06:05:11;;;;;;;9.68;5.25;;;23.70;49.60;;;;;;5030111;28;20037;-75
2023/03/10 06:07:37;;;;;;;8.35;4.80;;;23.70;46.60;;;;;;5029985;28;20053;-76
2023/03/10 06:10:04;;;;;;;9.35;4.78;;;23.90;49.70;;;;;;5029882;28;20587;-77
2023/03/10 06:12:31;;;;;;;9.07;4.80;;;23.90;48.70;;;;;;5013385;28;20516;-77
2023/03/10 06:14:57;;;;;;;10.25;5.15;;;23.70;47.70;;;;;;5029918;28;20077;-76
2023/03/10 06:17:24;;;;;;;8.18;5.18;;;23.90;49.30;;;;;;5029431;28;20029;-75
2023/03/10 06:19:51;;;;;;;11.75;6.10;;;23.80;49.80;;;;;;5029780;28;20040;-76
2023/03/10 06:22:17;;;;;;;17.45;6.97;;;24.00;48.30;;;;;;5029836;28;20493;-77
2023/03/10 06:24:44;;;;;;;17.45;7.30;;;23.90;49.20;;;;;;5031775;28;20044;-76
2023/03/10 06:27:10;;;;;;;10.80;6.72;;;23.90;47.80;;;;;;5032115;28;20358;-76
2023/03/10 06:29:36;;;;;;;16.70;6.50;;;24.10;47.60;;;;;;5032335;28;20041;-75
2023/03/10 06:32:03;;;;;;;11.82;6.82;;;24.10;46.40;;;;;;5031939;28;20037;-77
2023/03/10 06:34:29;;;;;;;13.52;7.10;;;24.10;45.00;;;;;;5032124;28;20051;-77
2023/03/10 06:36:55;;;;;;;14.80;7.05;;;24.10;44.10;;;;;;5032141;28;20061;-76
2023/03/10 06:39:21;;;;;;;12.60;7.72;;;24.00;52.00;;;;;;5032184;28;20363;-74
2023/03/10 06:41:47;;;;;;;12.00;7.35;;;24.00;53.80;;;;;;5032122;28;20037;-74
2023/03/10 06:44:17;;;;;;;14.82;7.13;;;23.90;53.90;;;;;;5031604;28;20555;-75
2023/03/10 06:46:45;;;;;;;18.52;7.75;;;24.00;54.60;;;;;;5031504;28;20041;-77
2023/03/10 06:49:11;;;;;;;11.23;7.22;;;23.90;55.00;;;;;;5031607;28;20037;-76
2023/03/10 06:51:37;;;;;;;11.27;6.43;;;23.90;55.20;;;;;;5031988;28;20065;-77
2023/03/10 06:54:04;;;;;;;13.05;6.47;;;23.80;55.20;;;;;;5031571;28;20073;-77
2023/03/10 06:56:30;;;;;;;12.23;6.65;;;23.70;55.30;;;;;;5030194;28;20563;-77
2023/03/10 06:58:58;;;;;;;6.63;5.57;;;23.90;55.70;;;;;;5031654;28;20047;-77
2023/03/10 07:01:25;;;;;;;8.27;4.88;;;23.70;55.70;;;;;;5031562;28;20460;-78
2023/03/10 07:03:52;;;;;;;8.50;5.40;;;23.70;55.60;;;;;;5031623;28;20069;-73
2023/03/10 07:06:18;;;;;;;10.05;5.40;;;23.90;58.50;;;;;;5031792;28;20033;-73
2023/03/10 07:08:45;;;;;;;14.25;4.97;;;23.70;57.00;;;;;;5031332;28;20095;-75
2023/03/10 07:11:11;;;;;;;7.78;4.53;;;23.80;57.20;;;;;;5031331;28;20100;-74
2023/03/10 07:13:37;;;;;;;5.50;3.88;;;23.80;56.90;;;;;;5030669;28;20112;-73
2023/03/10 07:16:04;;;;;;;10.50;5.72;;;23.70;57.20;;;;;;5031198;28;20346;-73
2023/03/10 07:18:30;;;;;;;7.40;4.57;;;23.80;57.50;;;;;;5031468;28;20051;-74
2023/03/10 07:20:56;;;;;;;6.47;4.72;;;23.70;57.60;;;;;;5031430;28;20034;-74
2023/03/10 07:23:23;;;;;;;5.50;4.10;;;23.90;57.80;;;;;;5031636;28;20040;-76
2023/03/10 07:25:56;;;;;;;7.35;4.82;;;23.80;57.30;;;;;;5031163;28;20397;-74
2023/03/10 07:28:22;;;;;;;;;;;23.70;57.70;;;;;;5031551;28;20033;-73
2023/03/10 07:30:49;;;;;;;11.32;4.47;;;23.80;57.90;;;;;;5031343;28;19967;-74
2023/03/10 07:33:15;;;;;;;12.45;6.00;;;23.70;58.10;;;;;;5031204;28;20041;-74
2023/03/10 07:35:42;;;;;;;9.30;4.85;;;23.80;58.10;;;;;;5031430;28;20043;-74
2023/03/10 07:38:08;;;;;;;6.50;4.32;;;23.80;58.00;;;;;;5031101;28;20029;-75
2023/03/10 07:40:34;;;;;;;7.13;4.43;;;23.80;58.10;;;;;;5031159;28;20434;-75
2023/03/10 07:43:00;;;;;;;8.02;4.50;;;23.70;58.30;;;;;;5031001;28;20084;-74
2023/03/10 07:45:29;;;;;;;4.90;3.75;;;23.70;58.50;;;;;;5061576;28;20046;-74
2023/03/10 07:47:55;;;;;;;8.90;4.85;;;23.70;58.60;;;;;;5030698;28;20509;-74
2023/03/10 07:50:21;;;;;;;13.05;4.57;;;23.70;58.00;;;;;;5031181;28;20037;-72
2023/03/10 07:52:47;;;;;;;9.02;4.32;;;23.80;58.40;;;;;;5031125;28;20033;-73
2023/03/10 07:55:13;;;;;;;6.35;4.55;;;23.70;58.30;;;;;;5031085;28;20038;-76
2023/03/10 07:57:39;;;;;;;5.82;3.83;;;23.60;58.00;;;;;;5031020;28;20036;-73
2023/03/10 08:00:06;;;;;;;9.07;5.03;;;23.70;58.00;;;;;;5030894;28;20033;-76
2023/03/10 08:02:38;;;;;;;6.90;4.88;;;23.70;56.80;;;;;;5031319;28;20050;-76
2023/03/10 08:05:04;;;;;;;8.43;4.80;;;23.70;58.20;;;;;;5031027;28;20033;-75
2023/03/10 08:07:30;;;;;;;6.25;3.72;;;23.70;58.30;;;;;;5031075;28;20029;-75
2023/03/10 08:09:57;;;;;;;12.15;4.68;;;23.60;58.40;;;;;;5030436;28;20429;-76
2023/03/10 08:12:23;;;;;;;7.68;4.22;;;23.70;58.50;;;;;;5030852;28;20045;-75
2023/03/10 08:14:50;;;;;;;6.35;4.10;;;23.70;59.40;;;;;;5030656;28;20037;-75
2023/03/10 08:17:16;;;;;;;6.85;4.43;;;23.60;59.50;;;;;;5030456;28;20046;-72
2023/03/10 08:19:43;;;;;;;5.78;3.35;;;23.60;58.90;;;;;;5033343;28;20029;-76
2023/03/10 08:22:09;;;;;;;10.73;4.10;;;23.70;58.70;;;;;;5043528;28;20037;-76
2023/03/10 08:24:38;;;;;;;6.45;4.03;;;23.60;58.10;;;;;;5030569;28;20033;-75
2023/03/10 08:27:04;;;;;;;8.27;3.83;;;23.80;56.50;;;;;;5045123;28;20029;-72
2023/03/10 08:29:30;;;;;;;5.60;3.95;;;23.70;56.60;;;;;;5046592;28;20404;-73
2023/03/10 08:31:57;;;;;;;5.55;3.22;;;23.60;56.50;;;;;;5034058;28;20045;-74
2023/03/10 08:34:23;;;;;;;5.22;3.45;;;23.70;56.60;;;;;;5032991;28;20044;-71
2023/03/10 08:36:48;;;;;;;5.85;3.58;;;23.80;56.40;;;;;;5034019;28;20401;-72
2023/03/10 08:39:14;;;;;;;7.72;4.10;;;23.80;56.50;;;;;;5034025;28;20033;-75
2023/03/10 08:41:48;;;;;;;9.40;3.83;;;23.70;54.80;;;;;;5033954;28;20053;-76
2023/03/10 08:44:16;;;;;;;9.90;3.25;;;23.80;54.40;;;;;;5032871;28;20033;-75
2023/03/10 08:46:44;;;;;;;9.73;4.15;;;23.80;55.00;;;;;;5033869;28;20033;-76
2023/03/10 08:49:11;;;;;;;5.55;4.03;;;23.90;54.80;;;;;;5033765;28;20053;-76
2023/03/10 08:51:38;;;;;;;4.63;3.63;;;23.90;55.30;;;;;;5036131;28;20533;-74
2023/03/10 08:54:04;;;;;;;7.80;3.75;;;23.90;55.60;;;;;;5052565;28;20032;-74
2023/03/10 08:56:31;;;;;;;9.10;4.05;;;23.80;55.00;;;;;;5054008;28;20041;-75
2023/03/10 08:58:59;;;;;;;9.18;4.15;;;23.90;54.50;;;;;;5053872;28;20040;-74
2023/03/10 09:01:30;;;;;;;7.68;4.07;;;23.80;50.20;;;;;;5054014;28;20071;-77
2023/03/10 09:03:57;;;;;;;6.95;3.30;;;23.90;54.20;;;;;;5053628;28;20025;-76
2023/03/10 09:06:23;;;;;;;4.88;3.58;;;23.80;54.60;;;;;;5053541;28;20112;-74
2023/03/10 09:08:49;;;;;;;6.70;3.42;;;23.80;54.60;;;;;;5053869;28;20148;-73
2023/03/10 09:11:20;;;;;;;3.72;2.78;;;23.80;54.80;;;;;;5053619;28;20053;-75
2023/03/10 09:13:47;;;;;;;7.57;4.15;;;23.80;54.80;;;;;;5052123;28;20412;-73
2023/03/10 09:16:14;;;;;;;5.90;3.58;;;23.80;55.00;;;;;;5053419;28;20118;-75
2023/03/10 09:18:40;;;;;;;4.60;3.20;;;23.80;55.30;;;;;;5053777;28;20104;-73
2023/03/10 09:21:07;;;;;;;8.00;3.25;;;23.90;54.60;;;;;;5053322;28;20083;-74
2023/03/10 09:23:33;;;;;;;7.35;4.20;;;23.90;55.20;;;;;;5053376;28;20025;-75
2023/03/10 09:25:59;;;;;;;7.60;2.92;;;23.90;54.30;;;;;;5049036;28;20051;-72
2023/03/10 09:28:25;;;;;;;4.47;2.90;;;23.90;48.70;;;;;;5047763;28;20162;-74
2023/03/10 09:30:53;;;;;;;7.75;2.67;;;23.90;47.40;;;;;;5033273;28;20083;-75
2023/03/10 09:33:22;;;;;;;8.32;2.72;;;24.00;48.50;;;;;;5033087;28;20108;-76
2023/03/10 09:35:49;;;;;;;6.68;2.35;;;24.00;47.50;;;;;;5032910;28;20044;-73
2023/03/10 09:38:15;;;;;;;5.50;2.30;;;24.10;45.70;;;;;;5032502;28;20033;-72
2023/03/10 09:40:45;;;;;;;4.05;2.42;;;24.00;53.10;;;;;;5033210;28;20036;-73
2023/03/10 09:43:19;;;;;;;5.80;2.90;;;24.20;54.00;;;;;;5033317;28;20033;-74
2023/03/10 09:46:04;;;;;;;3.67;2.20;;;24.30;56.70;;;;;;5032569;28;20068;-76
2023/03/10 09:48:35;;;;;;;4.05;2.38;;;24.10;47.40;;;;;;5031987;28;20029;-74
2023/03/10 09:51:14;;;;;;;4.93;2.13;;;24.30;47.40;;;;;;5032813;28;20084;-72
2023/03/10 09:53:51;;;;;;;2.80;2.15;;;24.40;54.40;;;;;;5032993;28;20041;-72
2023/03/10 09:56:32;;;;;;;5.57;2.83;;;24.40;53.30;;;;;;5032532;28;20116;-72
2023/03/10 09:59:08;;;;;;;3.60;2.30;;;24.50;53.70;;;;;;5031547;28;20025;-74
2023/03/10 10:01:35;;;;;;;3.60;2.10;;;24.30;53.60;;;;;;5015193;28;20045;-74
2023/03/10 10:04:17;;;;;;;2.25;1.95;;;24.30;52.50;;;;;;5031507;28;20051;-72
2023/03/10 10:06:48;;;;;;;4.03;2.05;;;24.50;54.40;;;;;;5032419;28;20034;-73
2023/03/10 10:09:43;;;;;;;4.90;2.40;;;24.20;54.40;;;;;;5032412;28;20060;-73
2023/03/10 10:12:15;;;;;;;9.23;2.80;;;24.30;54.30;;;;;;4990519;28;20046;-74
2023/03/10 10:14:42;;;;;;;2.58;1.67;;;24.20;54.30;;;;;;4990648;28;20042;-74
2023/03/10 10:17:35;;;;;;;2.42;1.63;;;24.30;54.70;;;;;;4990460;28;20082;-74
2023/03/10 10:20:05;;;;;;;2.55;2.08;;;24.40;54.70;;;;;;4990813;28;20518;-73
2023/03/10 10:22:36;;;;;;;4.85;1.60;;;24.40;54.80;;;;;;4990609;28;20082;-72
2023/03/10 10:25:05;;;;;;;2.63;2.30;;;24.30;53.30;;;;;;4974132;28;20408;-72
2023/03/10 10:27:31;;;;;;;2.67;1.92;;;24.30;52.30;;;;;;4957661;28;20129;-72
2023/03/10 10:29:57;;;;;;;3.53;1.70;;;24.30;55.10;;;;;;4957596;28;20043;-72
2023/03/10 10:32:24;;;;;;;3.95;1.95;;;24.20;54.10;;;;;;4990303;28;20046;-74
2023/03/10 10:34:50;;;;;;;3.50;2.03;;;24.20;55.40;;;;;;4990216;28;20042;-73
2023/03/10 10:37:29;;;;;;;3.13;1.92;;;24.30;55.50;;;;;;4989807;28;20526;-74
2023/03/10 10:39:57;;;;;;;2.70;1.75;;;24.20;55.80;;;;;;4973722;28;20054;-75
2023/03/10 10:42:31;;;;;;;6.35;2.60;;;24.20;56.70;;;;;;4990156;28;20145;-75
2023/03/10 10:45:21;;;;;;;5.55;2.17;;;24.60;57.60;;;;;;4989925;28;20487;-75
2023/03/10 10:47:51;;;;;;;3.55;2.42;;;25.30;56.70;;;;;;4989434;28;20057;-71
2023/03/10 10:50:17;;;;;;;4.55;2.60;;;25.40;46.30;;;;;;5030057;28;20121;-73
2023/03/10 10:52:51;;;;;;;6.80;2.97;;;25.10;47.80;;;;;;5031686;28;20075;-73
2023/03/10 10:55:28;;;;;;;7.38;2.60;;;25.20;52.60;;;;;;5030426;28;20370;-73
2023/03/10 10:58:00;;;;;;;4.63;2.10;;;25.20;49.20;;;;;;5031676;28;20505;-74
2023/03/10 11:00:30;;;;;;;2.33;2.10;;;25.30;52.30;;;;;;5031577;28;20021;-73
2023/03/10 11:02:56;;;;;;;7.55;1.90;;;25.30;53.60;;;;;;5031346;28;20048;-71
2023/03/10 11:05:31;;;;;;;3.05;1.85;;;25.30;53.20;;;;;;5029969;28;20036;-71
2023/03/10 11:08:17;;;;;;;3.75;1.95;;;25.10;53.50;;;;;;5031342;28;20045;-72
2023/03/10 11:10:49;;;;;;;2.97;1.90;;;25.00;53.60;;;;;;5031408;28;20432;-72
2023/03/10 11:13:22;;;;;;;3.60;1.75;;;25.00;53.90;;;;;;5031345;28;20045;-72
2023/03/10 11:16:05;;;;;;;4.65;2.15;;;25.00;53.80;;;;;;5031084;28;20120;-71
2023/03/10 11:18:46;;;;;;;2.33;1.95;;;25.00;54.10;;;;;;5031057;28;20409;-74
2023/03/10 11:21:19;;;;;;;3.30;2.20;;;25.00;54.30;;;;;;5031551;28;20426;-71
2023/03/10 11:23:53;;;;;;;2.88;1.92;;;24.80;54.20;;;;;;5031200;28;20041;-71
2023/03/10 11:26:29;;;;;;;6.50;2.47;;;24.90;54.70;;;;;;5028852;28;20056;-74
2023/03/10 11:28:58;;;;;;;3.03;2.22;;;24.80;54.90;;;;;;5031299;28;20069;-72
2023/03/10 11:31:56;;;;;;;4.20;2.28;;;24.90;55.00;;;;;;5031188;28;20381;-72
2023/03/10 11:34:29;;;;;;;4.55;2.03;;;24.80;55.00;;;;;;5031137;28;20045;-72
2023/03/10 11:37:14;;;;;;;5.20;2.45;;;24.80;55.10;;;;;;5029822;28;20409;-72
2023/03/10 11:39:58;;;;;;;5.38;1.88;;;24.70;55.10;;;;;;5031245;28;20041;-70
2023/03/10 11:42:46;;;;;;;3.90;2.10;;;24.80;55.20;;;;;;5031221;28;20076;-73
2023/03/10 11:45:33;;;;;;;3.03;2.40;;;24.70;52.60;;;;;;5031193;28;20048;-72
2023/03/10 11:48:05;;;;;;;4.13;2.42;;;24.90;52.10;;;;;;5031258;28;20060;-72
2023/03/10 11:50:34;;;;;;;5.22;2.38;;;25.10;55.90;;;;;;5031208;28;20500;-72
2023/03/10 11:53:11;;;;;;;1.95;1.35;;;25.10;50.30;;;;;;5030939;28;20038;-75
2023/03/10 11:55:39;;;;;;;1.30;1.15;;;25.10;56.70;;;;;;5031094;28;20045;-76
2023/03/10 11:58:20;;;;;;;2.63;1.73;;;25.20;56.20;;;;;;5031034;28;20121;-74
2023/03/10 12:00:47;;;;;;;2.60;1.85;;;25.10;53.50;;;;;;5032941;28;20035;-74
2023/03/10 12:03:23;;;;;;;5.93;2.03;;;25.20;53.50;;;;;;5035183;28;20088;-71
2023/03/10 12:05:57;;;;;;;8.18;1.98;;;25.00;52.00;;;;;;5034736;28;20033;-72
2023/03/10 12:08:26;;;;;;;3.60;1.60;;;25.00;51.70;;;;;;5034984;28;20029;-73
2023/03/10 12:10:54;;;;;;;3.58;1.90;;;24.80;50.50;;;;;;5034706;28;20056;-72
2023/03/10 12:13:28;;;;;;;3.40;1.42;;;24.80;51.00;;;;;;5034685;28;20789;-74
2023/03/10 12:16:00;;;;;;;3.33;1.95;;;24.80;50.90;;;;;;5034530;28;20041;-73
2023/03/10 12:18:27;;;;;;;5.77;1.83;;;25.00;49.20;;;;;;5034865;28;20038;-78
2023/03/10 12:21:17;;;;;;;2.25;1.52;;;24.80;49.50;;;;;;5033450;28;20270;-78
2023/03/10 12:23:49;;;;;;;1.75;1.42;;;24.70;49.20;;;;;;5034689;28;20037;-74
2023/03/10 12:26:38;;;;;;;10.85;4.32;;;24.70;48.70;;;;;;5039774;28;20404;-74
2023/03/10 12:29:19;;;;;;;2.67;1.63;;;24.70;50.10;;;;;;5034488;28;20515;-76
2023/03/10 12:31:50;;;;;;;4.22;1.98;;;24.70;51.30;;;;;;5034473;28;20038;-76
2023/03/10 12:34:28;;;;;;;4.13;1.83;;;24.60;51.30;;;;;;5034211;28;20032;-73
2023/03/10 12:37:03;;;;;;;2.40;1.50;;;24.60;51.20;;;;;;5034170;28;20033;-74
2023/03/10 12:39:39;;;;;;;4.35;1.92;;;24.60;46.40;;;;;;5032683;28;20025;-75
2023/03/10 12:42:31;;;;;;;5.20;1.77;;;24.70;50.70;;;;;;5034307;28;20051;-73
2023/03/10 12:45:06;;;;;;;3.35;1.73;;;24.60;51.10;;;;;;5034216;28;20049;-71
2023/03/10 12:47:44;;;;;;;3.55;1.80;;;24.60;50.80;;;;;;5033956;28;20065;-73
2023/03/10 12:50:35;;;;;;;2.45;2.25;;;24.70;50.00;;;;;;5034218;28;20057;-74
2023/03/10 12:53:09;;;;;;;1.70;1.35;;;24.70;48.50;;;;;;5033826;28;20444;-73
2023/03/10 12:55:39;;;;;;;1.48;1.35;;;24.70;47.60;;;;;;5033777;28;20033;-73
2023/03/10 12:58:20;;;;;;;4.40;2.10;;;24.60;48.40;;;;;;5016257;28;20037;-73
2023/03/10 13:01:09;;;;;;;4.40;1.75;;;24.70;48.20;;;;;;5031325;28;20059;-73